Time;durP1;ratioP1;P1;durP2;ratioP2;P2;SDS_P1;SDS_P2;PMS_P1;PMS_P2;Temp;Humidity;BMP_temperature;BMP_pressure;BME280_temperature;BME280_humidity;BME280_pressure;Samples;Min_cycle;Max_cycle;Signal;HPM_P1;HPM_P2
2022/07/06 00:01:22;;;;;;;3.63;1.00;;;13.90;79.30;;;;;;5034002;28;20072;-81
2022/07/06 00:03:48;;;;;;;3.45;1.00;;;13.80;79.20;;;;;;5034187;28;20029;-81
2022/07/06 00:06:14;;;;;;;5.82;0.98;;;13.90;79.40;;;;;;5033062;28;20036;-80
2022/07/06 00:08:40;;;;;;;5.57;1.10;;;13.80;79.60;;;;;;5033106;28;20436;-81
2022/07/06 00:11:06;;;;;;;5.85;1.10;;;13.80;79.80;;;;;;5016685;28;20056;-80
2022/07/06 00:13:32;;;;;;;3.53;1.10;;;13.80;80.20;;;;;;5032965;28;20076;-80
2022/07/06 00:15:57;;;;;;;2.22;0.80;;;13.80;80.40;;;;;;5034311;28;20029;-81
2022/07/06 00:18:23;;;;;;;3.40;1.00;;;13.70;80.50;;;;;;5032944;28;20033;-81
2022/07/06 00:20:48;;;;;;;5.28;1.50;;;13.70;80.70;;;;;;5032841;28;20470;-81
2022/07/06 00:23:14;;;;;;;3.00;1.05;;;13.70;80.90;;;;;;5034223;28;20037;-81
2022/07/06 00:25:40;;;;;;;3.72;1.30;;;13.60;81.10;;;;;;5033969;28;20057;-81
2022/07/06 00:28:05;;;;;;;4.68;1.00;;;13.60;81.20;;;;;;5016356;28;20402;-81
2022/07/06 00:30:31;;;;;;;3.83;1.00;;;13.60;82.20;;;;;;5016318;28;20060;-81
2022/07/06 00:32:58;;;;;;;4.65;0.90;;;13.60;81.60;;;;;;5016305;28;20488;-80
2022/07/06 00:35:24;;;;;;;2.83;1.10;;;13.50;82.20;;;;;;5032872;28;20037;-82
2022/07/06 00:37:50;;;;;;;3.53;0.90;;;13.50;82.20;;;;;;5032670;28;20033;-82
2022/07/06 00:40:16;;;;;;;3.65;1.27;;;13.50;82.40;;;;;;5032640;28;20069;-80
2022/07/06 00:42:43;;;;;;;2.28;1.00;;;13.40;83.00;;;;;;5032573;28;20065;-81
2022/07/06 00:45:10;;;;;;;4.13;1.15;;;13.40;83.10;;;;;;5032565;28;20025;-81
2022/07/06 00:47:42;;;;;;;4.00;1.05;;;13.20;83.20;;;;;;5015910;28;20091;-76
2022/07/06 00:50:22;;;;;;;5.72;1.50;;;13.30;84.40;;;;;;5033628;28;20030;-76
2022/07/06 00:52:50;;;;;;;3.50;1.08;;;13.30;83.90;;;;;;5033635;28;20021;-76
2022/07/06 00:55:19;;;;;;;3.55;1.10;;;13.30;84.30;;;;;;5032287;28;20100;-76
2022/07/06 00:57:45;;;;;;;6.15;1.10;;;13.20;84.30;;;;;;5032231;28;20048;-76
2022/07/06 01:00:13;;;;;;;6.57;1.10;;;13.20;84.40;;;;;;5032570;28;20033;-76
2022/07/06 01:02:39;;;;;;;1.70;0.70;;;13.20;84.50;;;;;;5032181;28;20029;-76
2022/07/06 01:05:07;;;;;;;6.13;2.15;;;13.30;84.70;;;;;;5032349;28;20044;-76
2022/07/06 01:07:33;;;;;;;4.75;1.05;;;13.20;84.80;;;;;;5033406;28;20088;-81
2022/07/06 01:09:59;;;;;;;4.03;1.00;;;13.20;85.00;;;;;;5032310;28;20022;-80
2022/07/06 01:12:25;;;;;;;7.05;1.17;;;13.20;85.10;;;;;;5032289;28;20048;-81
2022/07/06 01:14:51;;;;;;;3.95;1.23;;;13.30;85.40;;;;;;5032205;28;20026;-80
2022/07/06 01:17:21;;;;;;;6.47;1.27;;;13.20;85.50;;;;;;5015568;28;20063;-81
2022/07/06 01:19:47;;;;;;;6.38;1.20;;;13.10;85.60;;;;;;5032029;28;20393;-81
2022/07/06 01:22:12;;;;;;;5.25;1.17;;;13.10;85.80;;;;;;5032092;28;20037;-81
2022/07/06 01:24:38;;;;;;;6.70;1.30;;;13.20;86.10;;;;;;5032129;28;20121;-81
2022/07/06 01:27:05;;;;;;;3.50;1.17;;;13.10;86.30;;;;;;5032914;28;20054;-81
2022/07/06 01:29:32;;;;;;;2.08;0.90;;;13.10;86.50;;;;;;5032020;28;20053;-81
2022/07/06 01:31:58;;;;;;;4.07;1.38;;;13.10;86.60;;;;;;5033332;28;20017;-80
2022/07/06 01:34:23;;;;;;;2.78;1.10;;;13.10;86.90;;;;;;5033261;28;20013;-81
2022/07/06 01:36:49;;;;;;;5.50;1.20;;;13.00;86.90;;;;;;5031920;28;20022;-81
2022/07/06 01:39:15;;;;;;;4.22;1.23;;;13.00;87.10;;;;;;5032334;28;20559;-81
2022/07/06 01:41:41;;;;;;;4.97;1.60;;;13.00;87.30;;;;;;5031878;28;20022;-80
2022/07/06 01:44:07;;;;;;;8.55;1.30;;;12.90;87.40;;;;;;5032284;28;20381;-81
2022/07/06 01:46:33;;;;;;;3.47;1.13;;;13.00;87.70;;;;;;5033159;28;20056;-81
2022/07/06 01:48:59;;;;;;;3.53;1.42;;;13.00;87.90;;;;;;5031774;28;20021;-81
2022/07/06 01:51:24;;;;;;;2.97;1.40;;;12.90;88.00;;;;;;5033026;28;20025;-81
2022/07/06 01:53:51;;;;;;;4.47;1.45;;;12.90;88.20;;;;;;5033053;28;20501;-81
2022/07/06 01:56:19;;;;;;;6.03;1.45;;;12.90;88.40;;;;;;5031863;28;20022;-81
2022/07/06 01:58:45;;;;;;;3.83;1.30;;;12.80;88.60;;;;;;5033075;28;20057;-81
2022/07/06 02:01:16;;;;;;;3.00;1.20;;;12.80;88.90;;;;;;5015660;28;20029;-80
2022/07/06 02:03:42;;;;;;;5.53;1.05;;;12.80;89.10;;;;;;5032055;28;20028;-81
2022/07/06 02:06:09;;;;;;;4.53;1.35;;;12.80;89.30;;;;;;5031814;28;20056;-81
2022/07/06 02:08:35;;;;;;;3.60;1.20;;;12.80;89.50;;;;;;5031655;28;20025;-81
2022/07/06 02:11:02;;;;;;;4.93;1.45;;;12.70;89.60;;;;;;5031711;28;20109;-81
2022/07/06 02:13:28;;;;;;;7.65;1.17;;;12.80;89.90;;;;;;5032746;28;20044;-81
2022/07/06 02:15:54;;;;;;;4.28;1.42;;;12.80;90.00;;;;;;5015175;28;20501;-81
2022/07/06 02:18:20;;;;;;;5.55;1.10;;;12.70;90.10;;;;;;5015069;28;20033;-81
2022/07/06 02:20:45;;;;;;;7.45;1.27;;;12.70;90.20;;;;;;5031647;28;20021;-81
2022/07/06 02:23:11;;;;;;;3.85;1.17;;;12.80;90.30;;;;;;5015094;28;20385;-81
2022/07/06 02:25:37;;;;;;;5.60;1.08;;;12.70;90.30;;;;;;5016494;28;20528;-81
2022/07/06 02:28:03;;;;;;;5.40;1.70;;;12.70;90.40;;;;;;5036233;28;20037;-82
2022/07/06 02:30:28;;;;;;;5.70;1.20;;;12.70;90.40;;;;;;5018637;28;20112;-82
2022/07/06 02:32:54;;;;;;;6.60;1.27;;;12.70;90.50;;;;;;5018597;28;20036;-81
2022/07/06 02:35:20;;;;;;;6.30;1.55;;;12.70;90.60;;;;;;5036266;28;20024;-82
2022/07/06 02:37:45;;;;;;;5.90;1.65;;;12.70;90.70;;;;;;5018326;28;20470;-81
2022/07/06 02:40:11;;;;;;;5.93;1.58;;;12.70;90.80;;;;;;5023827;28;20037;-81
2022/07/06 02:42:37;;;;;;;4.05;1.63;;;12.70;90.90;;;;;;5015128;28;20129;-81
2022/07/06 02:45:03;;;;;;;7.38;1.63;;;12.70;90.90;;;;;;4998676;28;20100;-81
2022/07/06 02:47:29;;;;;;;5.25;2.15;;;12.70;90.90;;;;;;4998471;28;20501;-81
2022/07/06 02:49:55;;;;;;;7.80;2.22;;;12.60;91.00;;;;;;5014991;28;20030;-81
2022/07/06 02:52:20;;;;;;;5.00;1.58;;;12.60;91.00;;;;;;5015701;28;20037;-81
2022/07/06 02:54:46;;;;;;;7.60;2.42;;;12.70;91.10;;;;;;5031243;28;20045;-81
2022/07/06 02:57:12;;;;;;;3.97;1.77;;;12.60;91.10;;;;;;5031289;28;20508;-81
2022/07/06 02:59:38;;;;;;;7.05;2.25;;;12.50;91.20;;;;;;5016224;28;20034;-80
2022/07/06 03:02:07;;;;;;;4.25;1.73;;;12.50;91.30;;;;;;5032418;28;20045;-81
2022/07/06 03:04:33;;;;;;;8.68;1.60;;;12.50;91.40;;;;;;4998327;28;20482;-81
2022/07/06 03:06:59;;;;;;;5.75;2.15;;;12.50;91.40;;;;;;5015790;28;20022;-81
2022/07/06 03:09:25;;;;;;;4.80;1.58;;;12.40;91.50;;;;;;5014445;28;20521;-81
2022/07/06 03:11:50;;;;;;;4.95;2.05;;;12.40;91.60;;;;;;5014301;28;20023;-81
2022/07/06 03:14:16;;;;;;;5.13;1.50;;;12.40;91.80;;;;;;5014466;28;20026;-81
2022/07/06 03:16:42;;;;;;;5.40;1.38;;;12.40;91.80;;;;;;5014301;28;20026;-81
2022/07/06 03:19:07;;;;;;;5.53;1.85;;;12.30;91.90;;;;;;5030968;28;20030;-81
2022/07/06 03:21:33;;;;;;;5.28;1.75;;;12.30;92.10;;;;;;5030780;28;20076;-81
2022/07/06 03:23:59;;;;;;;7.55;1.77;;;12.30;92.30;;;;;;5015500;28;20057;-80
2022/07/06 03:26:24;;;;;;;4.97;1.58;;;12.30;92.30;;;;;;5013939;28;20081;-80
2022/07/06 03:28:50;;;;;;;5.28;2.13;;;12.40;92.40;;;;;;5014038;28;20379;-81
2022/07/06 03:31:16;;;;;;;2.95;1.35;;;12.30;92.50;;;;;;5030644;28;20414;-81
2022/07/06 03:33:41;;;;;;;4.45;1.67;;;12.40;92.50;;;;;;4997807;28;20025;-81
2022/07/06 03:36:07;;;;;;;3.67;1.45;;;12.50;92.60;;;;;;5030091;28;20026;-81
2022/07/06 03:38:34;;;;;;;3.53;1.48;;;12.40;92.60;;;;;;5013810;28;20442;-81
2022/07/06 03:40:59;;;;;;;4.22;1.20;;;12.50;92.60;;;;;;5014401;28;20073;-81
2022/07/06 03:43:25;;;;;;;5.63;1.40;;;12.50;92.70;;;;;;5014045;28;20069;-81
2022/07/06 03:45:50;;;;;;;5.68;1.75;;;12.60;92.70;;;;;;4997587;28;20120;-81
2022/07/06 03:48:16;;;;;;;5.70;1.50;;;12.60;92.80;;;;;;4997466;28;20479;-81
2022/07/06 03:50:42;;;;;;;4.35;1.42;;;12.70;92.80;;;;;;4997490;28;20104;-81
2022/07/06 03:53:07;;;;;;;4.32;1.52;;;12.70;92.90;;;;;;5013827;28;20030;-82
2022/07/06 03:55:33;;;;;;;4.28;1.30;;;12.70;92.90;;;;;;4997406;28;20026;-81
2022/07/06 03:57:59;;;;;;;10.95;1.63;;;12.70;92.90;;;;;;5014929;28;20389;-82
2022/07/06 04:00:24;;;;;;;3.85;1.60;;;12.80;93.00;;;;;;5030015;28;20062;-81
2022/07/06 04:02:50;;;;;;;7.35;1.00;;;12.90;93.00;;;;;;5029983;28;20038;-81
2022/07/06 04:05:20;;;;;;;8.18;1.50;;;13.00;93.10;;;;;;4997206;28;20394;-82
2022/07/06 04:07:49;;;;;;;3.40;0.90;;;13.00;93.10;;;;;;5013807;28;20034;-81
2022/07/06 04:10:15;;;;;;;4.80;1.60;;;13.00;93.10;;;;;;4997080;28;20038;-81
2022/07/06 04:12:43;;;;;;;5.85;1.70;;;13.00;93.10;;;;;;5013782;28;20474;-81
2022/07/06 04:15:10;;;;;;;3.40;1.30;;;13.10;93.10;;;;;;5013341;28;20057;-82
2022/07/06 04:17:53;;;;;;;5.30;1.83;;;13.10;93.10;;;;;;4996938;28;20493;-81
2022/07/06 04:20:20;;;;;;;6.00;1.13;;;13.00;93.10;;;;;;5015691;28;20534;-81
2022/07/06 04:22:46;;;;;;;8.68;1.67;;;13.10;93.30;;;;;;5013223;28;20372;-81
2022/07/06 04:25:11;;;;;;;4.05;1.38;;;13.10;93.00;;;;;;5029597;28;20128;-81
2022/07/06 04:27:37;;;;;;;4.80;1.50;;;13.10;93.10;;;;;;5012989;28;20108;-81
2022/07/06 04:30:04;;;;;;;2.80;1.15;;;13.10;93.10;;;;;;5018920;28;20521;-81
2022/07/06 04:32:30;;;;;;;5.80;1.73;;;13.00;93.00;;;;;;5016196;28;20490;-81
2022/07/06 04:34:56;;;;;;;4.40;1.25;;;13.00;93.10;;;;;;5023113;28;20041;-81
2022/07/06 04:37:21;;;;;;;3.53;1.33;;;13.10;93.20;;;;;;5015925;28;20025;-81
2022/07/06 04:39:47;;;;;;;3.47;1.50;;;13.00;93.20;;;;;;5013622;28;20037;-81
2022/07/06 04:42:13;;;;;;;2.65;1.02;;;13.10;93.20;;;;;;5011451;28;20498;-81
2022/07/06 04:44:39;;;;;;;3.70;1.40;;;13.00;93.20;;;;;;4996556;28;20107;-81
2022/07/06 04:47:04;;;;;;;2.67;1.13;;;12.90;93.30;;;;;;4996268;28;20041;-81
2022/07/06 04:49:30;;;;;;;3.50;1.50;;;13.00;93.30;;;;;;5012425;28;20034;-83
2022/07/06 04:51:56;;;;;;;4.75;1.60;;;13.00;93.40;;;;;;5013952;28;20077;-83
2022/07/06 04:54:22;;;;;;;3.70;1.42;;;13.00;93.50;;;;;;5029237;28;20025;-83
2022/07/06 04:56:47;;;;;;;6.20;1.42;;;13.00;93.50;;;;;;5012717;28;20390;-83
2022/07/06 04:59:14;;;;;;;6.00;1.58;;;13.00;93.50;;;;;;5012971;28;20034;-83
2022/07/06 05:01:40;;;;;;;6.20;1.80;;;13.00;93.60;;;;;;5012619;28;20124;-83
2022/07/06 05:04:07;;;;;;;4.90;1.90;;;13.00;93.70;;;;;;5012542;28;20033;-83
2022/07/06 05:06:33;;;;;;;7.22;2.13;;;13.00;93.70;;;;;;5012396;28;20080;-83
2022/07/06 05:08:59;;;;;;;4.45;1.50;;;13.00;93.80;;;;;;5012480;28;20029;-83
2022/07/06 05:11:28;;;;;;;5.18;2.13;;;13.10;94.20;;;;;;5012406;28;20112;-83
2022/07/06 05:13:54;;;;;;;6.20;2.30;;;13.10;94.10;;;;;;5012448;28;20430;-83
2022/07/06 05:16:20;;;;;;;6.25;1.85;;;13.20;94.20;;;;;;5012702;28;20080;-83
2022/07/06 05:18:46;;;;;;;5.25;1.75;;;13.10;94.20;;;;;;5012320;28;20121;-83
2022/07/06 05:21:11;;;;;;;3.97;1.88;;;13.30;94.40;;;;;;5013688;28;20117;-84
2022/07/06 05:23:37;;;;;;;5.30;2.17;;;13.30;94.50;;;;;;5012313;28;20513;-83
2022/07/06 05:26:02;;;;;;;5.60;2.15;;;13.40;94.40;;;;;;4996207;28;20050;-83
2022/07/06 05:28:28;;;;;;;6.47;1.65;;;13.40;94.50;;;;;;5012432;28;20034;-83
2022/07/06 05:30:54;;;;;;;7.35;2.35;;;13.50;94.50;;;;;;5012661;28;20141;-85
2022/07/06 05:33:19;;;;;;;6.40;1.67;;;13.50;94.60;;;;;;5012124;28;20018;-82
2022/07/06 05:35:45;;;;;;;3.65;1.60;;;13.60;94.60;;;;;;5012706;28;20390;-84
2022/07/06 05:38:10;;;;;;;7.72;1.33;;;13.70;94.80;;;;;;4995941;28;20482;-83
2022/07/06 05:40:37;;;;;;;3.85;1.20;;;13.70;94.80;;;;;;4996184;28;20022;-83
2022/07/06 05:43:03;;;;;;;5.57;1.40;;;13.80;95.20;;;;;;5012283;28;20036;-83
2022/07/06 05:45:28;;;;;;;6.72;0.82;;;13.90;95.00;;;;;;5013512;28;20064;-84
2022/07/06 05:50:38;;;;;;;2.72;0.57;;;14.10;95.20;;;;;;5012657;28;20037;-81
2022/07/06 05:53:05;;;;;;;3.63;0.70;;;14.30;94.60;;;;;;5028576;28;20022;-82
2022/07/06 05:55:31;;;;;;;7.05;0.40;;;14.40;94.30;;;;;;5028364;28;20076;-83
2022/07/06 05:57:57;;;;;;;9.73;0.80;;;14.50;94.10;;;;;;5028244;28;20504;-84
2022/07/06 06:00:24;;;;;;;1.75;0.50;;;14.60;94.00;;;;;;5014578;28;20030;-82
2022/07/06 06:02:50;;;;;;;3.75;0.47;;;14.60;93.90;;;;;;5017093;28;20048;-84
2022/07/06 06:05:16;;;;;;;4.72;0.82;;;14.70;93.70;;;;;;5015827;28;20029;-84
2022/07/06 06:07:42;;;;;;;2.17;0.60;;;14.80;93.50;;;;;;5016659;28;20076;-83
2022/07/06 06:10:10;;;;;;;4.40;0.50;;;14.90;93.40;;;;;;5015979;28;20053;-84
2022/07/06 06:12:36;;;;;;;1.60;0.32;;;14.90;93.20;;;;;;5032537;28;20017;-83
2022/07/06 06:15:02;;;;;;;5.78;0.40;;;15.00;92.80;;;;;;5017515;28;20489;-84
2022/07/06 06:17:28;;;;;;;6.93;0.77;;;15.10;92.60;;;;;;5017960;28;20117;-84
2022/07/06 06:19:54;;;;;;;4.50;0.60;;;15.10;92.50;;;;;;5016054;28;20026;-87
2022/07/06 06:22:19;;;;;;;2.03;0.30;;;15.10;92.20;;;;;;5015814;28;20076;-87
2022/07/06 06:24:45;;;;;;;3.53;0.50;;;15.10;92.10;;;;;;5015298;28;20084;-85
2022/07/06 06:27:11;;;;;;;3.08;0.43;;;15.20;91.90;;;;;;5015534;28;20116;-88
2022/07/06 06:29:37;;;;;;;2.05;0.40;;;15.20;91.80;;;;;;5031759;28;20116;-83
2022/07/06 06:32:03;;;;;;;1.65;0.32;;;15.30;91.70;;;;;;4999138;28;20113;-85
2022/07/06 06:34:28;;;;;;;4.00;0.40;;;15.30;91.70;;;;;;5015377;28;20385;-85
2022/07/06 06:36:54;;;;;;;2.03;0.50;;;15.40;91.60;;;;;;5015462;28;20022;-85
2022/07/06 06:39:19;;;;;;;2.15;0.55;;;15.40;91.60;;;;;;4998853;28;20022;-85
2022/07/06 06:41:45;;;;;;;4.30;0.60;;;15.50;91.40;;;;;;5014901;28;20018;-82
2022/07/06 06:44:11;;;;;;;4.55;0.40;;;15.50;91.30;;;;;;5014972;28;20030;-83
2022/07/06 06:46:37;;;;;;;4.60;0.43;;;15.60;91.20;;;;;;5022159;28;20025;-85
2022/07/06 06:49:03;;;;;;;2.78;0.40;;;15.60;91.10;;;;;;5019267;28;20050;-84
2022/07/06 06:51:29;;;;;;;2.78;0.43;;;15.60;90.80;;;;;;5019777;28;20060;-84
2022/07/06 06:53:54;;;;;;;3.50;0.50;;;15.70;90.80;;;;;;5036846;28;20025;-84
2022/07/06 06:56:20;;;;;;;2.75;0.50;;;15.70;90.60;;;;;;5019617;28;20430;-85
2022/07/06 06:58:46;;;;;;;2.95;0.50;;;15.70;90.30;;;;;;5030784;28;20394;-84
2022/07/06 07:01:11;;;;;;;3.78;0.40;;;15.70;90.10;;;;;;5014627;28;20064;-83
2022/07/06 07:03:37;;;;;;;1.30;0.30;;;15.80;90.20;;;;;;4998220;28;20036;-85
2022/07/06 07:06:02;;;;;;;1.38;0.20;;;15.80;90.20;;;;;;5014752;28;20026;-84
2022/07/06 07:08:28;;;;;;;1.33;0.20;;;15.80;90.20;;;;;;5017858;28;20045;-83
2022/07/06 07:10:54;;;;;;;3.90;0.40;;;15.80;89.70;;;;;;5016369;28;20076;-82
2022/07/06 07:13:19;;;;;;;4.20;0.40;;;15.90;89.50;;;;;;5016497;28;20036;-82
2022/07/06 07:15:45;;;;;;;1.90;0.22;;;15.90;88.90;;;;;;5015301;28;20038;-84
2022/07/06 07:18:11;;;;;;;4.10;0.30;;;15.90;88.50;;;;;;5015868;28;20478;-82
2022/07/06 07:20:36;;;;;;;5.53;0.47;;;16.00;88.70;;;;;;4999512;28;20488;-86
2022/07/06 07:23:02;;;;;;;2.03;0.35;;;16.10;88.70;;;;;;4998745;28;20034;-82
2022/07/06 07:25:28;;;;;;;2.95;0.60;;;16.10;88.60;;;;;;4998548;28;20032;-84
2022/07/06 07:27:54;;;;;;;3.83;0.55;;;16.10;88.40;;;;;;5015660;28;20128;-83
2022/07/06 07:30:20;;;;;;;2.30;0.32;;;16.20;88.30;;;;;;5016297;28;20026;-83
2022/07/06 07:32:46;;;;;;;5.47;0.38;;;16.20;88.40;;;;;;5014169;28;20029;-84
2022/07/06 07:35:11;;;;;;;3.45;0.50;;;16.30;88.30;;;;;;4998320;28;20053;-84
2022/07/06 07:37:37;;;;;;;4.78;0.30;;;16.40;88.30;;;;;;5014470;28;20053;-83
2022/07/06 07:40:05;;;;;;;1.80;0.40;;;16.40;87.00;;;;;;5014317;28;20492;-85
2022/07/06 07:42:31;;;;;;;2.58;0.65;;;16.50;87.00;;;;;;5015268;28;20383;-85
2022/07/06 07:44:56;;;;;;;1.38;0.20;;;16.60;86.80;;;;;;4997748;28;20038;-85
2022/07/06 07:47:22;;;;;;;3.15;0.50;;;16.70;86.60;;;;;;5014098;28;20026;-84
2022/07/06 07:49:48;;;;;;;2.88;0.30;;;16.70;85.60;;;;;;4998705;28;20073;-83
2022/07/06 07:52:13;;;;;;;1.38;0.30;;;16.80;85.10;;;;;;4998169;28;20080;-85
2022/07/06 07:54:39;;;;;;;2.47;0.40;;;16.80;83.90;;;;;;4997425;28;20026;-85
2022/07/06 07:57:05;;;;;;;1.88;0.28;;;16.80;83.80;;;;;;5014241;28;20442;-86
2022/07/06 07:59:30;;;;;;;5.85;0.30;;;16.90;83.30;;;;;;5014407;28;20030;-84
2022/07/06 08:01:56;;;;;;;3.10;0.30;;;16.90;82.00;;;;;;4997589;28;20037;-86
2022/07/06 08:04:22;;;;;;;1.90;0.20;;;17.00;80.30;;;;;;4997593;28;20209;-86
2022/07/06 08:06:48;;;;;;;1.25;0.20;;;17.00;79.90;;;;;;4997976;28;20076;-86
2022/07/06 08:09:14;;;;;;;3.70;0.43;;;17.10;77.30;;;;;;5013958;28;20026;-84
2022/07/06 08:11:39;;;;;;;2.20;0.35;;;17.20;77.50;;;;;;4997513;28;20037;-86
2022/07/06 08:14:05;;;;;;;4.45;0.28;;;17.20;77.20;;;;;;4997028;28;20517;-86
2022/07/06 08:16:31;;;;;;;2.25;0.20;;;17.30;77.40;;;;;;4997036;28;20018;-86
2022/07/06 08:18:57;;;;;;;2.25;0.20;;;17.50;77.50;;;;;;5014064;28;20394;-86
2022/07/06 08:21:23;;;;;;;4.13;0.45;;;17.60;77.10;;;;;;5026582;28;20037;-83
2022/07/06 08:23:49;;;;;;;1.42;0.10;;;17.80;76.90;;;;;;4996948;28;20026;-87
2022/07/06 08:26:15;;;;;;;4.82;0.45;;;17.90;76.20;;;;;;4996774;28;20057;-83
2022/07/06 08:28:40;;;;;;;2.97;0.40;;;17.90;75.10;;;;;;5013398;28;20029;-84
2022/07/06 08:31:06;;;;;;;1.58;0.10;;;17.90;74.70;;;;;;5013835;28;20022;-86
2022/07/06 08:33:32;;;;;;;0.63;0.10;;;18.00;74.20;;;;;;5000773;28;20471;-84
2022/07/06 08:35:57;;;;;;;2.60;0.20;;;18.00;73.70;;;;;;5034224;28;20036;-84
2022/07/06 08:38:23;;;;;;;3.60;0.20;;;18.10;72.20;;;;;;5033643;28;20037;-86
2022/07/06 08:40:51;;;;;;;1.35;0.20;;;18.10;71.80;;;;;;5001290;28;20021;-84
2022/07/06 08:43:16;;;;;;;1.33;0.20;;;18.10;71.20;;;;;;5017308;28;20049;-85
2022/07/06 08:45:46;;;;;;;1.58;0.20;;;18.10;70.60;;;;;;5033263;28;20590;-85
2022/07/06 08:48:12;;;;;;;0.35;0.10;;;18.00;70.20;;;;;;5030202;28;20048;-87
2022/07/06 08:50:38;;;;;;;3.03;0.30;;;18.00;70.40;;;;;;5029198;28;20033;-87
2022/07/06 08:53:04;;;;;;;1.70;0.10;;;18.10;71.30;;;;;;5024576;28;20108;-85
2022/07/06 08:55:31;;;;;;;1.13;0.10;;;18.20;70.50;;;;;;5032692;28;20398;-84
2022/07/06 08:57:57;;;;;;;1.23;0.20;;;18.30;70.50;;;;;;5032747;28;20445;-83
2022/07/06 09:00:24;;;;;;;0.47;0.10;;;18.50;69.50;;;;;;5033552;28;20030;-83
2022/07/06 09:02:53;;;;;;;0.80;0.17;;;18.70;68.50;;;;;;5015937;28;20030;-83
2022/07/06 09:05:22;;;;;;;0.52;0.10;;;18.80;67.90;;;;;;5033675;28;20068;-84
2022/07/06 09:07:52;;;;;;;2.58;0.15;;;19.00;66.50;;;;;;5032310;28;20393;-85
2022/07/06 09:10:19;;;;;;;3.13;0.20;;;19.10;65.80;;;;;;5032741;28;20490;-84
2022/07/06 09:12:45;;;;;;;0.75;0.13;;;19.10;64.90;;;;;;5016160;28;20037;-83
2022/07/06 09:15:11;;;;;;;0.38;0.10;;;19.10;64.90;;;;;;5015878;28;20114;-85
2022/07/06 09:17:41;;;;;;;1.13;0.10;;;19.10;64.70;;;;;;5015640;28;20385;-84
2022/07/06 09:20:11;;;;;;;2.10;0.20;;;19.10;64.00;;;;;;5015426;28;20036;-83
2022/07/06 09:22:38;;;;;;;1.95;0.17;;;19.10;64.10;;;;;;5031920;28;20029;-83
2022/07/06 09:25:10;;;;;;;0.30;0.10;;;19.20;64.10;;;;;;5032065;28;20112;-83
2022/07/06 09:27:49;;;;;;;2.58;0.10;;;19.20;64.00;;;;;;5031897;28;20046;-83
2022/07/06 09:30:15;;;;;;;1.63;0.30;;;19.40;64.00;;;;;;5032037;28;20036;-83
2022/07/06 09:32:44;;;;;;;0.65;0.10;;;19.60;63.40;;;;;;5033316;28;20043;-83
2022/07/06 09:35:29;;;;;;;2.28;0.25;;;19.70;63.10;;;;;;5034362;28;20029;-83
2022/07/06 09:38:11;;;;;;;1.65;0.10;;;19.90;61.50;;;;;;5037856;28;20028;-84
2022/07/06 09:40:39;;;;;;;0.65;0.10;;;19.90;61.10;;;;;;5036299;28;20099;-85
2022/07/06 09:43:16;;;;;;;1.48;0.10;;;19.90;61.30;;;;;;5037152;28;20079;-85
2022/07/06 09:45:48;;;;;;;1.25;0.10;;;20.00;60.10;;;;;;5023488;28;20113;-85
2022/07/06 09:48:21;;;;;;;1.23;0.10;;;20.00;59.40;;;;;;5022491;28;20025;-86
2022/07/06 09:50:50;;;;;;;0.50;0.10;;;20.10;59.80;;;;;;5037849;28;20025;-85
2022/07/06 09:53:17;;;;;;;1.75;0.20;;;20.20;59.70;;;;;;5036476;28;20071;-85
2022/07/06 09:55:45;;;;;;;1.33;0.15;;;20.30;59.30;;;;;;5037257;28;20021;-86
2022/07/06 09:58:11;;;;;;;1.02;0.10;;;20.50;59.20;;;;;;5036594;28;20370;-86
2022/07/06 10:00:36;;;;;;;0.70;0.10;;;20.60;58.90;;;;;;5035837;28;20075;-86
2022/07/06 10:03:03;;;;;;;0.88;0.20;;;20.80;58.60;;;;;;5035944;28;20033;-86
2022/07/06 10:05:30;;;;;;;0.88;0.20;;;20.90;58.20;;;;;;5019625;28;20053;-86
2022/07/06 10:08:00;;;;;;;1.35;0.20;;;20.90;57.40;;;;;;5018051;28;20449;-86
2022/07/06 10:10:28;;;;;;;3.80;0.35;;;21.00;57.40;;;;;;5015543;28;20049;-85
2022/07/06 10:12:57;;;;;;;1.85;0.20;;;21.00;57.30;;;;;;5031538;28;20026;-86
2022/07/06 10:15:28;;;;;;;1.23;0.13;;;21.20;57.20;;;;;;5017221;28;20026;-86
2022/07/06 10:17:56;;;;;;;1.70;0.13;;;21.30;56.80;;;;;;5026974;28;20055;-86
2022/07/06 10:20:22;;;;;;;1.17;0.10;;;21.40;56.40;;;;;;5035531;28;20021;-82
2022/07/06 10:22:48;;;;;;;2.25;0.20;;;21.40;55.70;;;;;;5035427;28;20030;-85
2022/07/06 10:25:18;;;;;;;0.95;0.08;;;21.40;55.80;;;;;;5034841;28;20389;-84
2022/07/06 10:27:47;;;;;;;0.52;0.10;;;21.50;56.10;;;;;;5034949;28;20517;-86
2022/07/06 10:30:13;;;;;;;0.90;0.20;;;21.50;56.30;;;;;;5035207;28;20018;-85
2022/07/06 10:32:41;;;;;;;1.23;0.30;;;21.50;56.90;;;;;;5019326;28;20470;-85
2022/07/06 10:35:08;;;;;;;0.85;0.10;;;21.60;56.30;;;;;;5018524;28;20029;-85
2022/07/06 10:37:34;;;;;;;0.80;0.20;;;21.70;56.10;;;;;;5034947;28;20418;-86
2022/07/06 10:42:49;;;;;;;0.50;0.10;;;21.90;56.20;;;;;;5036417;28;20079;-86
2022/07/06 10:45:39;;;;;;;0.77;0.10;;;22.00;56.60;;;;;;5034808;28;20025;-85
2022/07/06 10:48:11;;;;;;;1.38;0.10;;;22.10;55.80;;;;;;5034443;28;20389;-85
2022/07/06 10:50:38;;;;;;;2.58;0.47;;;22.10;55.70;;;;;;5034813;28;20366;-84
2022/07/06 10:53:11;;;;;;;2.05;0.20;;;22.20;55.80;;;;;;5034605;28;20026;-84
2022/07/06 10:55:38;;;;;;;1.08;0.20;;;22.30;55.80;;;;;;5034952;28;20017;-84
2022/07/06 10:58:05;;;;;;;1.98;0.20;;;22.40;55.80;;;;;;5034281;28;20021;-81
2022/07/06 11:00:54;;;;;;;2.38;0.30;;;22.50;55.60;;;;;;5034436;28;20030;-85
2022/07/06 11:03:39;;;;;;;1.20;0.22;;;22.70;55.20;;;;;;5035511;28;20030;-85
2022/07/06 11:06:12;;;;;;;2.33;0.20;;;22.80;55.20;;;;;;5034291;28;20030;-85
2022/07/06 11:09:03;;;;;;;1.63;0.25;;;23.00;55.00;;;;;;5035456;28;20402;-85
2022/07/06 11:11:31;;;;;;;2.17;0.10;;;23.20;54.70;;;;;;5035553;28;20025;-84
2022/07/06 11:14:03;;;;;;;1.38;0.30;;;23.40;54.70;;;;;;5034165;28;20025;-85
2022/07/06 11:16:33;;;;;;;1.98;0.43;;;23.50;54.30;;;;;;5034177;28;20124;-85
2022/07/06 11:19:14;;;;;;;0.70;0.20;;;23.60;54.20;;;;;;5034171;28;20029;-83
2022/07/06 11:21:59;;;;;;;2.15;0.30;;;23.70;53.80;;;;;;5034137;28;20033;-84
2022/07/06 11:24:26;;;;;;;2.45;0.10;;;23.80;53.40;;;;;;5034007;28;20029;-85
2022/07/06 11:26:53;;;;;;;3.05;0.20;;;24.00;53.30;;;;;;5033712;28;20045;-85
2022/07/06 11:29:21;;;;;;;0.55;0.10;;;24.10;52.80;;;;;;5033833;28;20071;-85
2022/07/06 11:31:48;;;;;;;1.23;0.10;;;24.10;52.60;;;;;;5033845;28;20512;-85
2022/07/06 11:34:19;;;;;;;2.00;0.10;;;24.30;52.40;;;;;;5035179;28;20017;-84
2022/07/06 11:36:46;;;;;;;2.50;0.30;;;24.40;52.20;;;;;;5033702;28;20049;-85
2022/07/06 11:39:12;;;;;;;0.65;0.20;;;24.60;52.00;;;;;;5033957;28;20034;-85
2022/07/06 11:41:37;;;;;;;1.98;0.13;;;24.70;51.40;;;;;;5034021;28;20029;-86
2022/07/06 11:44:04;;;;;;;2.78;0.17;;;24.80;51.60;;;;;;5035281;28;20036;-86
2022/07/06 11:46:31;;;;;;;3.25;0.20;;;25.00;50.80;;;;;;5017856;28;20034;-85
2022/07/06 11:49:00;;;;;;;2.72;0.10;;;25.10;50.70;;;;;;5033370;28;20033;-86
2022/07/06 11:51:27;;;;;;;0.75;0.20;;;25.30;50.60;;;;;;5033454;28;20022;-85
2022/07/06 11:53:55;;;;;;;1.65;0.30;;;25.30;50.40;;;;;;5016887;28;20026;-85
2022/07/06 11:56:25;;;;;;;1.90;0.20;;;25.40;50.20;;;;;;5033829;28;20034;-86
2022/07/06 11:58:52;;;;;;;2.67;0.30;;;25.60;50.10;;;;;;5016522;28;20018;-86
2022/07/06 12:01:18;;;;;;;0.50;0.20;;;25.70;49.70;;;;;;5017350;28;20079;-84
2022/07/06 12:03:45;;;;;;;1.98;0.20;;;25.90;49.60;;;;;;5033375;28;20025;-85
2022/07/06 12:06:29;;;;;;;1.10;0.20;;;25.90;49.20;;;;;;5033353;28;20044;-84
2022/07/06 12:08:56;;;;;;;1.67;0.20;;;25.90;48.70;;;;;;5034529;28;20025;-85
2022/07/06 12:11:28;;;;;;;2.03;0.20;;;25.90;48.90;;;;;;5017069;28;20117;-85
2022/07/06 12:13:56;;;;;;;1.38;0.20;;;26.10;48.80;;;;;;5033121;28;20109;-87
2022/07/06 12:16:28;;;;;;;2.42;0.30;;;26.30;49.10;;;;;;5016913;28;20034;-85
2022/07/06 12:18:53;;;;;;;1.17;0.10;;;26.50;48.30;;;;;;5017842;28;20112;-88
2022/07/06 12:21:21;;;;;;;0.82;0.30;;;26.70;47.80;;;;;;5034910;28;20427;-83
2022/07/06 12:23:52;;;;;;;1.60;0.20;;;27.00;47.30;;;;;;5016990;28;20035;-83
2022/07/06 12:26:28;;;;;;;2.20;0.30;;;27.20;46.90;;;;;;5032686;28;20045;-87
2022/07/06 12:29:13;;;;;;;1.42;0.20;;;27.40;46.70;;;;;;5032725;28;20513;-85
2022/07/06 12:31:56;;;;;;;1.15;0.20;;;27.60;46.40;;;;;;5029748;28;20029;-86
2022/07/06 12:34:27;;;;;;;0.90;0.20;;;27.80;45.80;;;;;;5013480;28;20070;-86
2022/07/06 12:36:55;;;;;;;2.78;0.20;;;27.90;45.70;;;;;;5032806;28;20060;-82
2022/07/06 12:39:26;;;;;;;0.28;0.10;;;28.00;45.40;;;;;;5031089;28;20112;-85
2022/07/06 12:42:04;;;;;;;1.30;0.10;;;28.20;45.10;;;;;;5016495;28;20037;-86
2022/07/06 12:44:30;;;;;;;1.92;0.20;;;28.40;44.70;;;;;;5016208;28;20022;-87
2022/07/06 12:47:05;;;;;;;1.73;0.20;;;28.70;44.80;;;;;;5033823;28;20386;-85
2022/07/06 12:49:31;;;;;;;0.90;0.10;;;28.80;44.40;;;;;;5032576;28;20390;-84
2022/07/06 12:52:10;;;;;;;0.63;0.10;;;28.90;44.50;;;;;;5032651;28;20030;-87
2022/07/06 12:54:41;;;;;;;1.55;0.20;;;29.20;44.30;;;;;;5033376;28;20162;-87